createdAt,value
2023-05-11T00:02:24.390Z,1.63
2023-05-11T00:04:56.974Z,2.00
2023-05-11T00:07:29.333Z,1.90
2023-05-11T00:10:01.481Z,1.73
2023-05-11T00:12:33.685Z,2.00
2023-05-11T00:15:06.452Z,1.98
2023-05-11T00:17:38.667Z,2.37
2023-05-11T00:20:11.339Z,2.08
2023-05-11T00:22:47.183Z,1.98
2023-05-11T00:25:19.629Z,1.85
2023-05-11T00:27:52.013Z,1.80
2023-05-11T00:30:24.307Z,2.50
2023-05-11T00:32:56.672Z,2.28
2023-05-11T00:35:29.197Z,2.27
2023-05-11T00:38:01.857Z,2.13
2023-05-11T00:40:34.084Z,2.22
2023-05-11T00:43:06.733Z,2.35
2023-05-11T00:45:40.065Z,2.40
2023-05-11T00:48:12.420Z,2.58
2023-05-11T00:50:45.013Z,2.50
2023-05-11T00:53:17.820Z,2.77
2023-05-11T00:55:50.059Z,2.60
2023-05-11T00:58:22.441Z,1.98
2023-05-11T01:00:54.605Z,2.38
2023-05-11T01:03:26.921Z,3.13
2023-05-11T01:06:29.537Z,2.38
2023-05-11T01:09:01.620Z,2.60
2023-05-11T01:11:49.509Z,2.80
2023-05-11T01:14:36.332Z,2.63
2023-05-11T01:17:23.786Z,2.30
2023-05-11T01:20:06.148Z,2.00
2023-05-11T01:22:45.038Z,2.30
2023-05-11T01:26:05.452Z,1.90
2023-05-11T01:28:53.121Z,2.25
2023-05-11T01:31:30.107Z,2.20
2023-05-11T01:34:06.585Z,2.67
2023-05-11T01:36:45.924Z,1.92
2023-05-11T01:39:22.411Z,2.20
2023-05-11T01:41:56.393Z,2.22
2023-05-11T01:44:33.455Z,2.30
2023-05-11T01:47:08.814Z,2.88
2023-05-11T01:49:44.311Z,2.28
2023-05-11T01:52:18.737Z,1.95
2023-05-11T01:54:52.987Z,2.03
2023-05-11T01:57:25.956Z,1.75
2023-05-11T02:00:01.573Z,1.90
2023-05-11T02:02:35.621Z,1.98
2023-05-11T02:05:08.799Z,2.10
2023-05-11T02:07:45.217Z,1.63
2023-05-11T02:10:18.804Z,1.98
2023-05-11T02:12:52.410Z,2.03
2023-05-11T02:15:26.691Z,2.30
2023-05-11T02:18:00.157Z,1.95
2023-05-11T02:20:33.753Z,1.88
2023-05-11T02:23:08.441Z,2.13
2023-05-11T02:25:42.258Z,1.95
2023-05-11T02:28:14.353Z,1.88
2023-05-11T02:30:50.623Z,1.55
2023-05-11T02:33:32.626Z,1.58
2023-05-11T02:36:06.478Z,2.00
2023-05-11T02:38:43.793Z,1.80
2023-05-11T02:41:21.737Z,1.65
2023-05-11T02:43:59.434Z,1.65
2023-05-11T02:46:35.751Z,1.88
2023-05-11T02:49:10.411Z,1.45
2023-05-11T02:51:45.197Z,1.40
2023-05-11T02:54:18.934Z,1.80
2023-05-11T02:56:56.943Z,1.50
2023-05-11T02:59:31.025Z,1.35
2023-05-11T03:02:03.705Z,1.80
2023-05-11T03:04:36.215Z,1.42
2023-05-11T03:07:09.547Z,1.15
2023-05-11T03:09:41.745Z,1.35
2023-05-11T03:12:15.232Z,1.92
2023-05-11T03:14:48.544Z,1.90
2023-05-11T03:17:21.826Z,1.63
2023-05-11T03:19:56.853Z,1.40
2023-05-11T03:22:31.868Z,1.60
2023-05-11T03:25:05.493Z,1.10
2023-05-11T03:27:42.384Z,1.20
2023-05-11T03:30:16.354Z,1.25
2023-05-11T03:32:52.975Z,1.00
2023-05-11T03:35:27.956Z,1.10
2023-05-11T03:38:01.368Z,1.20
2023-05-11T03:43:09.313Z,0.93
2023-05-11T03:45:44.280Z,1.38
2023-05-11T03:48:19.285Z,1.10
2023-05-11T03:50:53.178Z,1.10
2023-05-11T03:53:25.970Z,0.98
2023-05-11T03:55:58.746Z,0.93
2023-05-11T03:58:31.773Z,1.38
2023-05-11T04:01:04.303Z,1.20
2023-05-11T04:03:47.098Z,1.30
2023-05-11T04:06:20.471Z,1.20
2023-05-11T04:08:59.362Z,1.08
2023-05-11T04:11:37.630Z,1.30
2023-05-11T04:14:10.034Z,1.10
2023-05-11T04:16:42.508Z,1.17
2023-05-11T04:19:14.743Z,1.00
2023-05-11T04:21:47.716Z,1.60
2023-05-11T04:24:20.326Z,0.95
2023-05-11T04:26:57.915Z,0.90
2023-05-11T04:29:30.900Z,1.42
2023-05-11T04:32:03.081Z,1.15
2023-05-11T04:34:37.462Z,1.30
2023-05-11T04:37:11.484Z,1.08
2023-05-11T04:39:44.834Z,1.02
2023-05-11T04:42:17.558Z,1.10
2023-05-11T04:44:55.769Z,1.10
2023-05-11T04:50:00.823Z,0.88
2023-05-11T04:52:33.223Z,1.15
2023-05-11T04:55:10.638Z,1.20
2023-05-11T04:57:43.808Z,1.20
2023-05-11T05:00:16.832Z,1.38
2023-05-11T05:02:51.037Z,1.15
2023-05-11T05:05:24.432Z,1.00
2023-05-11T05:07:56.796Z,1.17
2023-05-11T05:10:30.688Z,1.20
2023-05-11T05:13:03.742Z,1.02
2023-05-11T05:15:37.190Z,1.17
2023-05-11T05:18:09.731Z,1.10
2023-05-11T05:20:42.837Z,0.90
2023-05-11T05:23:16.070Z,0.90
2023-05-11T05:25:48.270Z,1.00
2023-05-11T05:28:20.536Z,1.10
2023-05-11T05:30:53.093Z,1.20
2023-05-11T05:33:25.907Z,0.80
2023-05-11T05:35:58.065Z,1.00
2023-05-11T05:38:31.498Z,1.08
2023-05-11T05:41:06.273Z,0.90
2023-05-11T05:43:42.269Z,1.00
2023-05-11T05:46:15.146Z,0.80
2023-05-11T05:48:47.897Z,1.00
2023-05-11T05:51:20.688Z,0.80
2023-05-11T05:53:52.948Z,1.10
2023-05-11T05:56:27.686Z,0.93
2023-05-11T05:59:02.115Z,0.90
2023-05-11T06:01:35.651Z,1.58
2023-05-11T06:04:08.896Z,0.70
2023-05-11T06:06:41.991Z,0.70
2023-05-11T06:09:14.989Z,1.20
2023-05-11T06:11:48.678Z,1.00
2023-05-11T06:14:22.700Z,1.00
2023-05-11T06:16:55.510Z,0.80
2023-05-11T06:19:28.155Z,0.82
2023-05-11T06:22:00.756Z,0.75
2023-05-11T06:24:34.907Z,0.95
2023-05-11T06:27:07.796Z,1.15
2023-05-11T06:29:42.415Z,1.40
2023-05-11T06:32:15.175Z,1.20
2023-05-11T06:34:48.174Z,0.73
2023-05-11T06:37:21.329Z,1.73
2023-05-11T06:39:56.318Z,16.92
2023-05-11T06:42:28.572Z,3.77
2023-05-11T06:45:11.759Z,2.20
2023-05-11T06:47:47.311Z,1.40
2023-05-11T06:50:21.293Z,1.25
2023-05-11T06:52:54.622Z,1.50
2023-05-11T06:55:27.935Z,1.03
2023-05-11T06:58:00.189Z,1.17
2023-05-11T07:00:32.281Z,1.38
2023-05-11T07:03:04.993Z,1.10
2023-05-11T07:05:38.025Z,1.87
2023-05-11T07:08:10.133Z,1.55
2023-05-11T07:10:42.526Z,1.35
2023-05-11T07:13:14.799Z,1.48
2023-05-11T07:15:47.376Z,1.20
2023-05-11T07:18:19.795Z,1.48
2023-05-11T07:20:52.042Z,1.40
2023-05-11T07:23:24.541Z,1.08
2023-05-11T07:25:58.288Z,1.35
2023-05-11T07:28:30.387Z,1.23
2023-05-11T07:31:03.220Z,1.48
2023-05-11T07:33:38.060Z,1.15
2023-05-11T07:36:10.473Z,1.27
2023-05-11T07:38:42.612Z,1.55
2023-05-11T07:41:15.417Z,1.45
2023-05-11T07:43:47.754Z,1.93
2023-05-11T07:46:19.962Z,1.60
2023-05-11T07:49:03.426Z,1.20
2023-05-11T07:51:39.683Z,1.52
2023-05-11T07:54:11.955Z,0.88
2023-05-11T07:56:44.404Z,1.20
2023-05-11T07:59:16.933Z,1.10
2023-05-11T08:01:49.436Z,1.30
2023-05-11T08:04:21.581Z,1.17
2023-05-11T08:06:53.734Z,1.13
2023-05-11T08:09:26.324Z,0.98
2023-05-11T08:12:01.813Z,0.90
2023-05-11T08:14:34.462Z,0.70
2023-05-11T08:17:06.782Z,0.70
2023-05-11T08:19:39.250Z,0.80
2023-05-11T08:22:13.302Z,0.97
2023-05-11T08:24:47.276Z,0.93
2023-05-11T08:27:19.826Z,1.10
2023-05-11T08:29:52.299Z,0.80
2023-05-11T08:32:25.028Z,0.93
2023-05-11T08:34:57.867Z,0.90
2023-05-11T08:37:32.175Z,0.87
2023-05-11T08:40:04.809Z,0.70
2023-05-11T08:42:40.130Z,1.13
2023-05-11T08:45:13.607Z,1.30
2023-05-11T08:47:46.721Z,1.20
2023-05-11T08:50:18.989Z,1.08
2023-05-11T08:52:51.383Z,1.30
2023-05-11T08:55:26.432Z,1.80
2023-05-11T08:58:00.864Z,1.65
2023-05-11T09:00:34.644Z,1.40
2023-05-11T09:03:08.484Z,1.30
2023-05-11T09:05:41.490Z,1.30
2023-05-11T09:08:15.451Z,1.40
2023-05-11T09:10:49.865Z,1.30
2023-05-11T09:13:22.134Z,1.60
2023-05-11T09:15:54.322Z,1.13
2023-05-11T09:18:27.226Z,1.20
2023-05-11T09:21:02.350Z,1.50
2023-05-11T09:23:34.602Z,1.42
2023-05-11T09:26:17.580Z,1.67
2023-05-11T09:29:02.424Z,1.00
2023-05-11T09:31:41.925Z,0.73
2023-05-11T09:34:23.023Z,1.27
2023-05-11T09:36:57.106Z,0.93
2023-05-11T09:39:41.229Z,1.40
2023-05-11T09:42:18.270Z,1.60
2023-05-11T09:44:50.637Z,1.48
2023-05-11T09:47:23.222Z,1.40
2023-05-11T09:49:55.672Z,0.80
2023-05-11T09:52:27.819Z,0.73
2023-05-11T09:55:11.047Z,1.13
2023-05-11T09:57:43.119Z,1.23
2023-05-11T10:00:15.639Z,1.17
2023-05-11T10:03:03.514Z,1.10
2023-05-11T10:05:36.957Z,1.10
2023-05-11T10:08:10.894Z,1.17
2023-05-11T10:10:43.395Z,0.98
2023-05-11T10:15:52.611Z,1.10
2023-05-11T10:18:25.591Z,1.50
2023-05-11T10:20:58.755Z,1.43
2023-05-11T10:23:34.127Z,1.77
2023-05-11T10:26:06.558Z,1.90
2023-05-11T10:28:39.870Z,1.20
2023-05-11T10:33:48.619Z,1.13
2023-05-11T10:36:23.950Z,1.00
2023-05-11T10:38:58.905Z,1.00
2023-05-11T10:41:51.758Z,1.38
2023-05-11T10:44:51.601Z,1.17
2023-05-11T10:47:45.193Z,1.90
2023-05-11T10:50:43.825Z,2.17
2023-05-11T10:53:21.164Z,2.25
2023-05-11T10:56:17.036Z,2.22
2023-05-11T10:59:20.672Z,3.65
2023-05-11T11:01:59.210Z,4.43
2023-05-11T11:04:47.952Z,2.33
2023-05-11T11:07:21.129Z,2.10
2023-05-11T11:10:07.537Z,2.00
2023-05-11T11:13:01.214Z,0.88
2023-05-11T11:15:56.749Z,1.30
2023-05-11T11:18:34.029Z,1.05
2023-05-11T11:21:07.431Z,0.77
2023-05-11T11:23:49.422Z,0.75
2023-05-11T11:26:48.203Z,0.93
2023-05-11T11:29:20.425Z,1.30
2023-05-11T11:31:52.657Z,2.40
2023-05-11T11:34:25.402Z,1.95
2023-05-11T11:37:06.893Z,1.70
2023-05-11T11:39:42.094Z,0.90
2023-05-11T11:42:40.542Z,0.68
2023-05-11T11:45:32.077Z,0.90
2023-05-11T11:48:17.133Z,1.20
2023-05-11T11:51:00.451Z,0.70
2023-05-11T11:53:39.876Z,0.80
2023-05-11T11:56:14.785Z,1.05
2023-05-11T11:58:47.189Z,1.77
2023-05-11T12:01:23.998Z,2.13
2023-05-11T12:04:06.219Z,2.58
2023-05-11T12:06:40.315Z,1.00
2023-05-11T12:09:19.735Z,1.08
2023-05-11T12:11:53.317Z,1.08
2023-05-11T12:14:26.533Z,1.13
2023-05-11T12:17:03.832Z,0.90
2023-05-11T12:19:36.637Z,1.00
2023-05-11T12:22:11.011Z,2.00
2023-05-11T12:24:43.632Z,1.58
2023-05-11T12:27:19.038Z,1.90
2023-05-11T12:29:51.805Z,1.75
2023-05-11T12:32:31.724Z,1.57
2023-05-11T12:35:05.466Z,1.50
2023-05-11T12:37:41.695Z,1.42
2023-05-11T12:40:14.711Z,1.33
2023-05-11T12:42:53.888Z,1.05
2023-05-11T12:45:27.749Z,1.00
2023-05-11T12:48:00.858Z,1.10
2023-05-11T12:50:33.075Z,0.75
2023-05-11T12:53:18.560Z,0.60
2023-05-11T12:56:00.314Z,0.82
2023-05-11T12:58:40.601Z,0.65
2023-05-11T13:01:13.171Z,1.20
2023-05-11T13:03:48.897Z,1.20
2023-05-11T13:06:21.964Z,1.50
2023-05-11T13:08:54.416Z,1.45
2023-05-11T13:11:27.536Z,1.40
2023-05-11T13:14:00.039Z,1.33
2023-05-11T13:16:34.177Z,1.50
2023-05-11T13:19:08.676Z,1.70
2023-05-11T13:21:41.217Z,2.08
2023-05-11T13:24:21.857Z,1.98
2023-05-11T13:26:58.106Z,1.00
2023-05-11T13:29:30.667Z,1.10
2023-05-11T13:32:06.335Z,1.45
2023-05-11T13:34:39.072Z,1.05
2023-05-11T13:37:15.549Z,1.65
2023-05-11T13:39:48.287Z,2.15
2023-05-11T13:42:20.764Z,1.73
2023-05-11T13:44:53.023Z,2.00
2023-05-11T13:47:26.583Z,1.67
2023-05-11T13:49:59.835Z,1.70
2023-05-11T13:52:32.499Z,2.30
2023-05-11T13:55:05.460Z,2.35
2023-05-11T13:57:37.908Z,2.30
2023-05-11T14:00:11.138Z,2.65
2023-05-11T14:02:48.517Z,1.90
2023-05-11T14:05:21.395Z,2.25
2023-05-11T14:07:53.865Z,2.10
2023-05-11T14:10:26.968Z,1.50
2023-05-11T14:12:59.148Z,1.63
2023-05-11T14:15:31.707Z,1.90
2023-05-11T14:18:05.445Z,2.05
2023-05-11T14:23:10.745Z,3.03
2023-05-11T14:25:43.808Z,1.73
2023-05-11T14:28:16.495Z,1.90
2023-05-11T14:30:50.011Z,2.63
2023-05-11T14:33:22.498Z,2.97
2023-05-11T14:35:55.803Z,2.03
2023-05-11T14:38:29.689Z,2.47
2023-05-11T14:41:02.628Z,2.10
2023-05-11T14:43:35.660Z,1.88
2023-05-11T14:46:08.218Z,1.98
2023-05-11T14:48:41.290Z,1.60
2023-05-11T14:51:13.720Z,1.70
2023-05-11T14:53:47.513Z,1.67
2023-05-11T14:56:20.507Z,1.45
2023-05-11T14:58:53.997Z,1.20
2023-05-11T15:01:26.669Z,2.30
2023-05-11T15:03:59.300Z,2.80
2023-05-11T15:06:32.152Z,1.35
2023-05-11T15:09:04.449Z,1.20
2023-05-11T15:11:37.593Z,1.42
2023-05-11T15:14:11.046Z,2.22
2023-05-11T15:16:43.971Z,1.50
2023-05-11T15:19:16.633Z,1.50
2023-05-11T15:21:48.913Z,1.77
2023-05-11T15:24:21.754Z,1.75
2023-05-11T15:26:54.809Z,1.60
2023-05-11T15:29:27.646Z,1.60
2023-05-11T15:32:00.987Z,1.70
2023-05-11T15:34:37.525Z,1.20
2023-05-11T15:37:16.771Z,1.50
2023-05-11T15:39:49.351Z,2.22
2023-05-11T15:42:21.727Z,1.90
2023-05-11T15:44:54.111Z,2.20
2023-05-11T15:47:26.959Z,2.85
2023-05-11T15:49:59.252Z,3.10
2023-05-11T15:52:32.324Z,2.70
2023-05-11T15:55:05.414Z,2.15
2023-05-11T15:57:37.998Z,2.33
2023-05-11T16:00:11.561Z,2.70
2023-05-11T16:02:45.985Z,2.60
2023-05-11T16:05:18.717Z,3.20
2023-05-11T16:07:51.290Z,3.00
2023-05-11T16:10:23.560Z,2.28
2023-05-11T16:12:58.727Z,2.60
2023-05-11T16:15:32.516Z,1.90
2023-05-11T16:20:38.408Z,2.65
2023-05-11T16:23:10.889Z,1.80
2023-05-11T16:25:43.607Z,1.88
2023-05-11T16:28:15.896Z,1.65
2023-05-11T16:30:48.392Z,2.30
2023-05-11T16:33:20.928Z,1.98
2023-05-11T16:35:53.533Z,2.73
2023-05-11T16:38:25.787Z,2.35
2023-05-11T16:41:00.491Z,2.15
2023-05-11T16:43:33.312Z,2.00
2023-05-11T16:46:06.363Z,1.83
2023-05-11T16:48:38.650Z,2.47
2023-05-11T16:51:11.275Z,2.20
2023-05-11T16:53:45.068Z,2.20
2023-05-11T16:56:17.965Z,3.17
2023-05-11T16:58:50.207Z,1.80
2023-05-11T17:01:22.743Z,1.65
2023-05-11T17:03:55.278Z,2.08
2023-05-11T17:06:27.977Z,1.98
2023-05-11T17:09:00.183Z,2.33
2023-05-11T17:11:32.460Z,2.47
2023-05-11T17:14:08.153Z,2.80
2023-05-11T17:16:43.397Z,3.00
2023-05-11T17:19:16.971Z,3.47
2023-05-11T17:21:50.775Z,3.92
2023-05-11T17:26:55.167Z,4.50
2023-05-11T17:29:27.503Z,5.35
2023-05-11T17:32:00.002Z,5.05
2023-05-11T17:34:32.395Z,3.83
2023-05-11T17:37:06.177Z,4.37
2023-05-11T17:39:38.382Z,3.75
2023-05-11T17:42:12.121Z,3.63
2023-05-11T17:44:44.823Z,3.03
2023-05-11T17:47:19.894Z,3.80
2023-05-11T17:49:53.831Z,3.78
2023-05-11T17:52:26.513Z,3.50
2023-05-11T17:54:58.934Z,4.43
2023-05-11T17:57:31.439Z,2.92
2023-05-11T18:00:05.191Z,3.20
2023-05-11T18:02:42.740Z,3.55
2023-05-11T18:05:16.374Z,3.83
2023-05-11T18:10:22.425Z,4.07
2023-05-11T18:12:55.103Z,3.45
2023-05-11T18:15:27.648Z,4.13
2023-05-11T18:17:59.888Z,3.47
2023-05-11T18:20:32.145Z,3.13
2023-05-11T18:23:05.469Z,3.80
2023-05-11T18:25:40.193Z,3.38
2023-05-11T18:28:13.081Z,3.90
2023-05-11T18:30:45.328Z,4.00
2023-05-11T18:33:17.832Z,3.50
2023-05-11T18:35:51.914Z,2.85
2023-05-11T18:38:24.176Z,3.50
2023-05-11T18:40:56.651Z,2.90
2023-05-11T18:43:28.853Z,2.90
2023-05-11T18:46:01.130Z,2.10
2023-05-11T18:48:33.836Z,3.00
2023-05-11T18:51:07.209Z,4.83
2023-05-11T18:53:39.528Z,6.25
2023-05-11T18:56:11.804Z,6.95
2023-05-11T18:58:48.192Z,8.02
2023-05-11T19:01:20.704Z,6.35
2023-05-11T19:03:52.925Z,7.88
2023-05-11T19:06:25.222Z,6.25
2023-05-11T19:08:57.625Z,6.35
2023-05-11T19:11:30.132Z,7.15
2023-05-11T19:14:02.810Z,6.22
2023-05-11T19:16:36.070Z,6.23
2023-05-11T19:19:08.600Z,7.75
2023-05-11T19:21:42.722Z,6.10
2023-05-11T19:24:15.761Z,7.13
2023-05-11T19:26:58.872Z,6.32
2023-05-11T19:29:38.608Z,6.47
2023-05-11T19:32:10.940Z,7.35
2023-05-11T19:34:43.432Z,6.20
2023-05-11T19:37:15.671Z,6.10
2023-05-11T19:39:49.046Z,7.32
2023-05-11T19:42:28.692Z,6.90
2023-05-11T19:45:11.750Z,8.70
2023-05-11T19:47:45.048Z,7.75
2023-05-11T19:50:21.108Z,7.70
2023-05-11T19:52:55.583Z,10.57
2023-05-11T19:55:27.817Z,10.20
2023-05-11T19:58:00.529Z,9.43
2023-05-11T20:00:33.073Z,8.43
2023-05-11T20:03:06.681Z,8.20
2023-05-11T20:08:12.079Z,7.10
2023-05-11T20:10:44.430Z,7.13
2023-05-11T20:13:17.392Z,9.57
2023-05-11T20:15:49.737Z,8.13
2023-05-11T20:18:22.090Z,7.00
2023-05-11T20:20:54.264Z,7.38
2023-05-11T20:23:27.703Z,6.50
2023-05-11T20:25:59.900Z,7.40
2023-05-11T20:28:32.209Z,6.97
2023-05-11T20:31:05.259Z,7.28
2023-05-11T20:36:12.988Z,6.45
2023-05-11T20:38:45.535Z,7.05
2023-05-11T20:41:17.982Z,7.40
2023-05-11T20:43:50.937Z,7.20
2023-05-11T20:46:23.325Z,8.60
2023-05-11T20:48:56.893Z,7.13
2023-05-11T20:51:29.059Z,7.05
2023-05-11T20:54:01.452Z,6.65
2023-05-11T20:56:36.917Z,6.53
2023-05-11T21:00:03.778Z,6.80
2023-05-11T21:02:02.078Z,7.55
2023-05-11T21:04:36.237Z,6.85
2023-05-11T21:07:08.667Z,7.45
2023-05-11T21:09:41.618Z,6.82
2023-05-11T21:12:13.856Z,10.05
2023-05-11T21:14:46.086Z,8.55
2023-05-11T21:17:18.487Z,8.73
2023-05-11T21:19:51.798Z,6.70
2023-05-11T21:22:24.267Z,5.82
2023-05-11T21:24:57.452Z,4.70
2023-05-11T21:27:29.902Z,7.60
2023-05-11T21:30:02.203Z,7.82
2023-05-11T21:32:34.988Z,5.95
2023-05-11T21:35:07.637Z,9.13
2023-05-11T21:37:40.046Z,8.07
2023-05-11T21:40:12.729Z,7.05
2023-05-11T21:42:45.007Z,8.40
2023-05-11T21:45:17.136Z,8.75
2023-05-11T21:47:49.505Z,10.93
2023-05-11T21:50:21.905Z,9.73
2023-05-11T21:52:54.052Z,10.80
2023-05-11T21:55:26.272Z,12.75
2023-05-11T21:57:58.878Z,11.65
2023-05-11T22:00:33.010Z,14.43
2023-05-11T22:03:05.953Z,14.73
2023-05-11T22:05:38.421Z,14.45
2023-05-11T22:08:15.388Z,12.57
2023-05-11T22:10:48.547Z,12.10
2023-05-11T22:13:20.829Z,14.52
2023-05-11T22:15:53.803Z,17.35
2023-05-11T22:18:26.008Z,12.00
2023-05-11T22:20:58.263Z,15.25
2023-05-11T22:23:31.362Z,15.80
2023-05-11T22:26:03.945Z,14.60
2023-05-11T22:28:36.226Z,12.68
2023-05-11T22:31:08.608Z,17.02
2023-05-11T22:33:41.688Z,13.50
2023-05-11T22:36:13.817Z,12.98
2023-05-11T22:38:46.706Z,12.80
2023-05-11T22:41:18.883Z,12.93
2023-05-11T22:43:51.531Z,14.15
2023-05-11T22:46:24.255Z,11.52
2023-05-11T22:48:57.083Z,12.98
2023-05-11T22:51:29.269Z,10.95
2023-05-11T22:54:01.747Z,10.70
2023-05-11T22:56:34.304Z,9.38
2023-05-11T22:59:06.777Z,8.00
2023-05-11T23:01:39.066Z,8.48
2023-05-11T23:04:11.388Z,8.02
2023-05-11T23:06:43.529Z,7.45
2023-05-11T23:09:16.205Z,7.95
2023-05-11T23:11:49.111Z,7.35
2023-05-11T23:14:21.739Z,8.07
2023-05-11T23:16:54.151Z,7.88
2023-05-11T23:19:27.290Z,8.65
2023-05-11T23:21:59.920Z,8.48
2023-05-11T23:24:32.181Z,8.68
2023-05-11T23:27:04.664Z,8.75
2023-05-11T23:29:37.855Z,8.73
2023-05-11T23:32:10.098Z,9.23
2023-05-11T23:34:42.907Z,7.10
2023-05-11T23:37:15.597Z,6.97
2023-05-11T23:39:48.165Z,9.93
2023-05-11T23:42:20.519Z,6.57
2023-05-11T23:44:53.015Z,8.05
2023-05-11T23:47:25.309Z,7.43
2023-05-11T23:49:58.591Z,8.52
2023-05-11T23:52:30.781Z,9.93
2023-05-11T23:55:04.768Z,8.43
2023-05-11T23:57:37.373Z,7.25
